Terminal Aerodrome Forecast
Issued by NWS Twin Cities, MN

Home | Current Version | Previous Version | Text Only | Print | Product List | Glossary Off
Versions: 1 2 3 4 5 6 7 8 9 10 11 12 13 14 15 16

000
FTUS43 KMPX 141738
TAFEAU
TAF
KEAU 141738Z 1418/1518 15004KT P6SM VCSH SCT007 OVC012
     FM142000 VRB03KT P6SM OVC022
      TEMPO 1503/1505 SCT025
     FM150500 00000KT 3SM BR SCT002
     FM150600 00000KT 1/4SM FG VV002=

USA.gov is the U.S. government's official web portal to all federal, state and local government web resources and services.